createdAt,value
2019-01-28T00:00:03.631Z,6.1
2019-01-28T00:01:03.266Z,6.1
2019-01-28T00:02:03.237Z,5
2019-01-28T00:03:03.137Z,6.1
2019-01-28T00:04:02.393Z,5
2019-01-28T00:05:02.435Z,6.1
2019-01-28T00:06:01.902Z,2.5
2019-01-28T00:07:03.696Z,3.6
2019-01-28T00:08:03.219Z,3.6
2019-01-28T00:09:03.480Z,3.6
2019-01-28T00:10:03.736Z,5
2019-01-28T00:11:03.796Z,5
2019-01-28T00:12:03.054Z,3.6
2019-01-28T00:13:03.575Z,3.6
2019-01-28T00:14:03.173Z,5
2019-01-28T00:15:03.025Z,5
2019-01-28T00:16:03.047Z,8.6
2019-01-28T00:17:02.753Z,8.6
2019-01-28T00:18:03.959Z,7.2
2019-01-28T00:19:03.644Z,7.2
2019-01-28T00:20:02.917Z,5
2019-01-28T00:21:03.204Z,5
2019-01-28T00:22:03.254Z,6.1
2019-01-28T00:23:02.867Z,6.1
2019-01-28T00:24:03.730Z,7.2
2019-01-28T00:25:03.293Z,8.6
2019-01-28T00:26:03.423Z,13.3
2019-01-28T00:27:02.307Z,12.2
2019-01-28T00:28:02.841Z,17.3
2019-01-28T00:29:02.859Z,15.8
2019-01-28T00:30:03.155Z,14.8
2019-01-28T00:31:03.244Z,15.8
2019-01-28T00:32:03.411Z,15.8
2019-01-28T00:33:03.235Z,15.8
2019-01-28T00:34:03.457Z,19.4
2019-01-28T00:35:02.849Z,18.4
2019-01-28T00:36:03.206Z,22
2019-01-28T00:37:02.937Z,22
2019-01-28T00:38:03.136Z,14.8
2019-01-28T00:39:03.389Z,12.2
2019-01-28T00:40:03.074Z,12.2
2019-01-28T00:41:03.123Z,13.3
2019-01-28T00:42:03.031Z,13.3
2019-01-28T00:43:03.057Z,13.3
2019-01-28T00:44:03.593Z,12.2
2019-01-28T00:45:03.881Z,12.2
2019-01-28T00:46:03.274Z,12.2
2019-01-28T00:47:02.915Z,15.8
2019-01-28T00:48:03.033Z,19.4
2019-01-28T00:49:03.749Z,19.4
2019-01-28T00:50:03.490Z,15.8
2019-01-28T00:51:03.595Z,17.3
2019-01-28T00:52:03.230Z,17.3
2019-01-28T00:53:02.873Z,17.3
2019-01-28T00:54:03.609Z,13.3
2019-01-28T00:55:03.503Z,14.8
2019-01-28T00:56:03.033Z,17.3
2019-01-28T00:57:02.074Z,17.3
2019-01-28T00:58:03.575Z,11.2
2019-01-28T00:59:03.761Z,11.2
2019-01-28T01:00:03.385Z,12.2
2019-01-28T01:01:03.113Z,12.2
2019-01-28T01:02:03.191Z,17.3
2019-01-28T01:03:03.889Z,13.3
2019-01-28T01:04:03.214Z,14.8
2019-01-28T01:05:03.735Z,12.2
2019-01-28T01:06:03.132Z,15.8
2019-01-28T01:07:03.696Z,14.8
2019-01-28T01:08:02.935Z,19.4
2019-01-28T01:09:03.498Z,18.4
2019-01-28T01:10:02.811Z,11.2
2019-01-28T01:11:03.252Z,12.2
2019-01-28T01:12:04.064Z,18.4
2019-01-28T01:13:03.313Z,22
2019-01-28T01:14:03.836Z,29.5
2019-01-28T01:15:03.126Z,30.6
2019-01-28T01:16:03.663Z,25.6
2019-01-28T01:17:02.921Z,25.6
2019-01-28T01:18:03.235Z,20.9
2019-01-28T01:19:03.529Z,27
2019-01-28T01:20:03.039Z,20.9
2019-01-28T01:21:03.121Z,24.5
2019-01-28T01:22:02.981Z,24.5
2019-01-28T01:23:03.717Z,23.4
2019-01-28T01:24:03.877Z,23.4
2019-01-28T01:25:03.628Z,23.4
2019-01-28T01:26:03.637Z,27
2019-01-28T01:27:03.695Z,24.5
2019-01-28T01:28:03.708Z,34.2
2019-01-28T01:29:03.088Z,34.2
2019-01-28T01:30:03.752Z,27
2019-01-28T01:31:02.831Z,25.6
2019-01-28T01:32:03.029Z,31.7
2019-01-28T01:33:02.771Z,28.1
2019-01-28T01:34:03.162Z,24.5
2019-01-28T01:35:02.621Z,20.9
2019-01-28T01:36:03.437Z,20.9
2019-01-28T01:37:03.001Z,25.6
2019-01-28T01:38:03.424Z,27
2019-01-28T01:39:03.770Z,23.4
2019-01-28T01:40:03.591Z,20.9
2019-01-28T01:41:03.143Z,19.4
2019-01-28T01:42:03.364Z,18.4
2019-01-28T01:43:03.743Z,22
2019-01-28T01:44:03.316Z,18.4
2019-01-28T01:45:03.813Z,18.4
2019-01-28T01:46:03.074Z,18.4
2019-01-28T01:47:03.550Z,20.9
2019-01-28T01:48:03.141Z,25.6
2019-01-28T01:49:02.889Z,25.6
2019-01-28T01:50:02.973Z,20.9
2019-01-28T01:51:03.421Z,22
2019-01-28T01:52:03.136Z,23.4
2019-01-28T01:53:03.634Z,18.4
2019-01-28T01:54:03.728Z,24.5
2019-01-28T01:55:03.366Z,20.9
2019-01-28T01:56:03.867Z,23.4
2019-01-28T01:57:03.534Z,20.9
2019-01-28T01:58:03.698Z,15.8
2019-01-28T01:59:03.522Z,22
2019-01-28T02:00:03.394Z,24.5
2019-01-28T02:01:03.310Z,27
2019-01-28T02:02:03.599Z,24.5
2019-01-28T02:03:02.608Z,27
2019-01-28T02:04:03.315Z,24.5
2019-01-28T02:05:02.904Z,31.7
2019-01-28T02:06:03.567Z,22
2019-01-28T02:07:02.993Z,23.4
2019-01-28T02:08:03.264Z,23.4
2019-01-28T02:09:03.585Z,18.4
2019-01-28T02:10:03.409Z,20.9
2019-01-28T02:11:03.659Z,22
2019-01-28T02:12:03.144Z,25.6
2019-01-28T02:13:04.135Z,19.4
2019-01-28T02:14:03.006Z,19.4
2019-01-28T02:15:03.740Z,17.3
2019-01-28T02:16:03.067Z,18.4
2019-01-28T02:17:03.698Z,18.4
2019-01-28T02:18:02.894Z,23.4
2019-01-28T02:19:03.269Z,20.9
2019-01-28T02:20:03.911Z,20.9
2019-01-28T02:21:03.120Z,23.4
2019-01-28T02:22:02.884Z,20.9
2019-01-28T02:23:03.051Z,20.9
2019-01-28T02:24:03.215Z,22
2019-01-28T02:25:03.365Z,17.3
2019-01-28T02:26:03.664Z,17.3
2019-01-28T02:27:03.115Z,18.4
2019-01-28T02:28:03.871Z,19.4
2019-01-28T02:29:02.876Z,19.4
2019-01-28T02:30:04.205Z,18.4
2019-01-28T02:31:02.974Z,20.9
2019-01-28T02:32:03.649Z,13.3
2019-01-28T02:33:03.187Z,17.3
2019-01-28T02:34:03.382Z,15.8
2019-01-28T02:35:03.329Z,17.3
2019-01-28T02:36:03.931Z,15.8
2019-01-28T02:37:03.134Z,15.8
2019-01-28T02:38:03.520Z,15.8
2019-01-28T02:39:03.170Z,20.9
2019-01-28T02:40:03.399Z,15.8
2019-01-28T02:41:03.036Z,17.3
2019-01-28T02:42:03.293Z,14.8
2019-01-28T02:43:02.931Z,15.8
2019-01-28T02:44:03.687Z,15.8
2019-01-28T02:45:03.188Z,18.4
2019-01-28T02:46:03.401Z,15.8
2019-01-28T02:47:03.560Z,19.4
2019-01-28T02:48:03.359Z,19.4
2019-01-28T02:49:03.961Z,14.8
2019-01-28T02:50:03.342Z,14.8
2019-01-28T02:51:03.615Z,17.3
2019-01-28T02:52:03.127Z,17.3
2019-01-28T02:53:03.602Z,15.8
2019-01-28T02:54:03.126Z,13.3
2019-01-28T02:55:03.602Z,15.8
2019-01-28T02:56:03.119Z,17.3
2019-01-28T02:57:03.643Z,17.3
2019-01-28T02:58:03.548Z,19.4
2019-01-28T02:59:03.047Z,25.6
2019-01-28T03:00:03.072Z,18.4
2019-01-28T03:01:03.500Z,15.8
2019-01-28T03:02:03.161Z,15.8
2019-01-28T03:03:03.216Z,15.8
2019-01-28T03:04:03.579Z,15.8
2019-01-28T03:05:03.152Z,15.8
2019-01-28T03:06:02.839Z,15.8
2019-01-28T03:07:03.035Z,15.8
2019-01-28T03:08:03.102Z,15.8
2019-01-28T03:09:02.942Z,17.3
2019-01-28T03:10:03.658Z,14.8
2019-01-28T03:11:03.180Z,20.9
2019-01-28T03:12:02.905Z,23.4
2019-01-28T03:13:03.361Z,24.5
2019-01-28T03:14:03.247Z,20.9
2019-01-28T03:15:03.582Z,23.4
2019-01-28T03:16:03.249Z,18.4
2019-01-28T03:17:03.564Z,18.4
2019-01-28T03:18:03.326Z,18.4
2019-01-28T03:19:02.998Z,15.8
2019-01-28T03:20:03.447Z,15.8
2019-01-28T03:21:02.869Z,14.8
2019-01-28T03:22:03.412Z,13.3
2019-01-28T03:23:03.843Z,15.8
2019-01-28T03:24:03.342Z,15.8
2019-01-28T03:25:03.559Z,14.8
2019-01-28T03:26:02.759Z,17.3
2019-01-28T03:27:03.182Z,17.3
2019-01-28T03:28:02.971Z,19.4
2019-01-28T03:29:03.810Z,13.3
2019-01-28T03:30:03.549Z,15.8
2019-01-28T03:31:03.045Z,13.3
2019-01-28T03:32:03.456Z,14.8
2019-01-28T03:33:03.361Z,14.8
2019-01-28T03:34:03.711Z,14.8
2019-01-28T03:35:03.133Z,13.3
2019-01-28T03:36:03.490Z,14.8
2019-01-28T03:37:03.715Z,18.4
2019-01-28T03:38:02.914Z,12.2
2019-01-28T03:39:03.300Z,12.2
2019-01-28T03:40:03.343Z,13.3
2019-01-28T03:41:02.966Z,14.8
2019-01-28T03:42:03.737Z,11.2
2019-01-28T03:43:03.409Z,13.3
2019-01-28T03:44:03.600Z,13.3
2019-01-28T03:45:03.492Z,14.8
2019-01-28T03:46:03.503Z,9.7
2019-01-28T03:47:03.631Z,9.7
2019-01-28T03:48:03.215Z,14.8
2019-01-28T03:49:03.807Z,13.3
2019-01-28T03:50:03.344Z,11.2
2019-01-28T03:51:03.583Z,9.7
2019-01-28T03:52:03.155Z,11.2
2019-01-28T03:53:03.585Z,11.2
2019-01-28T03:54:03.472Z,12.2
2019-01-28T03:55:03.108Z,11.2
2019-01-28T03:56:03.521Z,11.2
2019-01-28T03:57:03.661Z,13.3
2019-01-28T03:58:04.939Z,12.2
2019-01-28T03:59:03.574Z,11.2
2019-01-28T04:00:02.741Z,12.2
2019-01-28T04:01:03.388Z,11.2
2019-01-28T04:02:03.519Z,13.3
2019-01-28T04:03:03.259Z,11.2
2019-01-28T04:04:03.533Z,9.7
2019-01-28T04:05:03.528Z,11.2
2019-01-28T04:06:02.923Z,8.6
2019-01-28T04:07:02.903Z,15.8
2019-01-28T04:08:03.907Z,15.8
2019-01-28T04:09:02.604Z,12.2
2019-01-28T04:10:03.186Z,11.2
2019-01-28T04:11:03.137Z,11.2
2019-01-28T04:12:03.064Z,11.2
2019-01-28T04:13:02.709Z,11.2
2019-01-28T04:14:03.589Z,12.2
2019-01-28T04:15:03.374Z,12.2
2019-01-28T04:16:02.874Z,9.7
2019-01-28T04:17:02.987Z,9.7
2019-01-28T04:18:03.781Z,13.3
2019-01-28T04:19:03.516Z,14.8
2019-01-28T04:20:02.919Z,14.8
2019-01-28T04:21:03.043Z,14.8
2019-01-28T04:22:03.294Z,9.7
2019-01-28T04:23:03.624Z,11.2
2019-01-28T04:24:03.415Z,12.2
2019-01-28T04:25:03.847Z,7.2
2019-01-28T04:26:03.664Z,7.2
2019-01-28T04:27:02.927Z,7.2
2019-01-28T04:28:03.384Z,9.7
2019-01-28T04:29:03.009Z,8.6
2019-01-28T04:30:02.878Z,11.2
2019-01-28T04:31:02.982Z,8.6
2019-01-28T04:32:02.905Z,9.7
2019-01-28T04:33:03.395Z,11.2
2019-01-28T04:34:03.617Z,8.6
2019-01-28T04:35:03.430Z,8.6
2019-01-28T04:36:03.484Z,9.7
2019-01-28T04:37:03.153Z,13.3
2019-01-28T04:38:02.555Z,9.7
2019-01-28T04:39:03.182Z,9.7
2019-01-28T04:40:03.108Z,11.2
2019-01-28T04:41:03.109Z,7.2
2019-01-28T04:42:03.523Z,7.2
2019-01-28T04:43:03.545Z,9.7
2019-01-28T04:44:02.912Z,8.6
2019-01-28T04:45:03.986Z,9.7
2019-01-28T04:46:02.966Z,11.2
2019-01-28T04:47:03.652Z,11.2
2019-01-28T04:48:03.379Z,9.7
2019-01-28T04:49:03.288Z,9.7
2019-01-28T04:50:02.914Z,6.1
2019-01-28T04:51:03.163Z,6.1
2019-01-28T04:52:03.503Z,6.1
2019-01-28T04:53:03.531Z,7.2
2019-01-28T04:54:03.421Z,5
2019-01-28T04:55:03.359Z,8.6
2019-01-28T04:56:03.146Z,8.6
2019-01-28T04:57:02.791Z,7.2
2019-01-28T04:58:04.052Z,7.2
2019-01-28T04:59:03.274Z,9.7
2019-01-28T05:00:03.130Z,9.7
2019-01-28T05:01:03.186Z,9.7
2019-01-28T05:02:03.120Z,9.7
2019-01-28T05:03:03.745Z,9.7
2019-01-28T05:04:03.252Z,9.7
2019-01-28T05:05:03.010Z,9.7
2019-01-28T05:06:02.788Z,9.7
2019-01-28T05:07:03.487Z,9.7
2019-01-28T05:08:03.746Z,9.7
2019-01-28T05:09:03.481Z,9.7
2019-01-28T05:10:03.900Z,13.3
2019-01-28T05:11:02.853Z,15.8
2019-01-28T05:12:03.179Z,17.3
2019-01-28T05:13:05.186Z,18.4
2019-01-28T05:14:03.351Z,14.8
2019-01-28T05:15:03.517Z,13.3
2019-01-28T05:16:03.146Z,11.2
2019-01-28T05:17:03.618Z,9.7
2019-01-28T05:18:03.799Z,11.2
2019-01-28T05:19:02.954Z,9.7
2019-01-28T05:20:02.721Z,12.2
2019-01-28T05:21:02.842Z,11.2
2019-01-28T05:22:03.238Z,8.6
2019-01-28T05:23:03.425Z,7.2
2019-01-28T05:24:03.565Z,9.7
2019-01-28T05:25:02.784Z,7.2
2019-01-28T05:26:03.106Z,8.6
2019-01-28T05:27:02.981Z,8.6
2019-01-28T05:28:03.616Z,7.2
2019-01-28T05:29:02.972Z,6.1
2019-01-28T05:30:03.113Z,7.2
2019-01-28T05:31:03.691Z,7.2
2019-01-28T05:32:02.776Z,7.2
2019-01-28T05:33:03.556Z,8.6
2019-01-28T05:34:02.790Z,7.2
2019-01-28T05:35:03.069Z,7.2
2019-01-28T05:36:03.645Z,8.6
2019-01-28T05:37:03.383Z,8.6
2019-01-28T05:38:02.748Z,7.2
2019-01-28T05:39:03.173Z,8.6
2019-01-28T05:40:03.216Z,7.2
2019-01-28T05:41:03.262Z,7.2
2019-01-28T05:42:03.449Z,7.2
2019-01-28T05:43:03.457Z,3.6
2019-01-28T05:44:03.516Z,6.1
2019-01-28T05:45:04.603Z,5
2019-01-28T05:47:03.929Z,6.1
2019-01-28T05:47:05.091Z,5
2019-01-28T05:48:09.754Z,6.1
2019-01-28T05:49:04.591Z,5
2019-01-28T05:50:03.841Z,5
2019-01-28T05:51:03.139Z,3.6
2019-01-28T05:52:03.264Z,5
2019-01-28T05:53:02.946Z,6.1
2019-01-28T05:54:03.023Z,3.6
2019-01-28T05:55:03.511Z,3.6
2019-01-28T05:56:03.247Z,6.1
2019-01-28T05:57:03.597Z,7.2
2019-01-28T05:58:03.527Z,7.2
2019-01-28T05:59:03.472Z,8.6
2019-01-28T06:00:03.691Z,7.2
2019-01-28T06:01:03.553Z,7.2
2019-01-28T06:02:03.111Z,5
2019-01-28T06:03:03.261Z,5
2019-01-28T06:04:03.249Z,7.2
2019-01-28T06:05:03.864Z,5
2019-01-28T06:06:03.642Z,5
2019-01-28T06:07:03.764Z,7.2
2019-01-28T06:08:05.586Z,7.2
2019-01-28T06:09:03.247Z,7.2
2019-01-28T06:10:03.790Z,9.7
2019-01-28T06:11:03.081Z,7.2
2019-01-28T06:12:03.761Z,7.2
2019-01-28T06:13:02.758Z,5
2019-01-28T06:14:03.036Z,6.1
2019-01-28T06:15:03.439Z,5
2019-01-28T06:16:03.697Z,2.5
2019-01-28T06:17:03.315Z,5
2019-01-28T06:18:03.593Z,8.6
2019-01-28T06:19:02.850Z,8.6
2019-01-28T06:20:03.232Z,6.1
2019-01-28T06:21:04.978Z,5
2019-01-28T06:22:03.509Z,7.2
2019-01-28T06:23:02.991Z,5
2019-01-28T06:24:03.257Z,5
2019-01-28T06:25:02.950Z,6.1
2019-01-28T06:26:03.063Z,6.1
2019-01-28T06:27:03.754Z,11.2
2019-01-28T06:28:03.107Z,11.2
2019-01-28T06:29:03.072Z,8.6
2019-01-28T06:30:03.200Z,12.2
2019-01-28T06:31:03.224Z,9.7
2019-01-28T06:32:03.238Z,11.2
2019-01-28T06:33:03.066Z,8.6
2019-01-28T06:34:03.526Z,8.6
2019-01-28T06:35:03.146Z,5
2019-01-28T06:36:02.908Z,9.7
2019-01-28T06:37:02.975Z,11.2
2019-01-28T06:38:03.684Z,8.6
2019-01-28T06:39:03.823Z,8.6
2019-01-28T06:40:03.021Z,9.7
2019-01-28T06:41:02.966Z,13.3
2019-01-28T06:42:02.910Z,8.6
2019-01-28T06:43:03.551Z,8.6
2019-01-28T06:44:03.079Z,9.7
2019-01-28T06:45:03.679Z,9.7
2019-01-28T06:46:03.775Z,12.2
2019-01-28T06:47:03.387Z,9.7
2019-01-28T06:48:03.437Z,12.2
2019-01-28T06:49:03.219Z,8.6
2019-01-28T06:50:03.634Z,9.7
2019-01-28T06:51:03.578Z,9.7
2019-01-28T06:52:02.937Z,6.1
2019-01-28T06:53:03.569Z,12.2
2019-01-28T06:54:03.188Z,9.7
2019-01-28T06:55:03.807Z,9.7
2019-01-28T06:56:03.573Z,12.2
2019-01-28T06:57:04.075Z,13.3
2019-01-28T06:58:02.799Z,9.7
2019-01-28T06:59:03.535Z,11.2
2019-01-28T07:00:03.840Z,8.6
2019-01-28T07:01:03.010Z,8.6
2019-01-28T07:02:02.809Z,8.6
2019-01-28T07:03:03.328Z,8.6
2019-01-28T07:04:03.075Z,8.6
2019-01-28T07:05:03.674Z,8.6
2019-01-28T07:06:03.796Z,8.6
2019-01-28T07:07:03.198Z,8.6
2019-01-28T07:08:03.409Z,8.6
2019-01-28T07:09:03.191Z,7.2
2019-01-28T07:10:03.405Z,6.1
2019-01-28T07:11:03.558Z,8.6
2019-01-28T07:12:03.486Z,6.1
2019-01-28T07:13:03.258Z,7.2
2019-01-28T07:14:03.461Z,6.1
2019-01-28T07:15:03.178Z,8.6
2019-01-28T07:16:03.485Z,5
2019-01-28T07:17:03.642Z,3.6
2019-01-28T07:18:03.328Z,5
2019-01-28T07:19:03.343Z,5
2019-01-28T07:20:02.971Z,5
2019-01-28T07:21:02.551Z,2.5
2019-01-28T07:22:03.332Z,2.5
2019-01-28T07:23:03.403Z,2.5
2019-01-28T07:24:02.512Z,3.6
2019-01-28T07:25:03.576Z,5
2019-01-28T07:26:03.305Z,1.1
2019-01-28T07:27:03.590Z,1.1
2019-01-28T07:28:03.198Z,1.1
2019-01-28T07:29:03.528Z,2.5
2019-01-28T07:30:03.623Z,1.1
2019-01-28T07:31:03.038Z,1.1
2019-01-28T07:32:03.508Z,1.1
2019-01-28T07:33:03.357Z,2.5
2019-01-28T07:34:02.786Z,3.6
2019-01-28T07:35:03.716Z,0
2019-01-28T07:36:02.940Z,1.1
2019-01-28T07:37:03.796Z,2.5
2019-01-28T07:38:03.878Z,1.1
2019-01-28T07:39:03.717Z,1.1
2019-01-28T07:40:03.619Z,3.6
2019-01-28T07:41:03.566Z,3.6
2019-01-28T07:42:03.429Z,2.5
2019-01-28T07:43:03.299Z,1.1
2019-01-28T07:44:03.132Z,1.1
2019-01-28T07:45:03.609Z,0
2019-01-28T07:46:03.786Z,2.5
2019-01-28T07:47:03.052Z,1.1
2019-01-28T07:48:03.649Z,2.5
2019-01-28T07:49:03.416Z,1.1
2019-01-28T07:50:03.414Z,1.1
2019-01-28T07:51:03.427Z,2.5
2019-01-28T07:52:03.753Z,2.5
2019-01-28T07:53:03.132Z,2.5
2019-01-28T07:54:03.694Z,6.1
2019-01-28T07:55:03.786Z,5
2019-01-28T07:56:03.348Z,2.5
2019-01-28T07:57:03.214Z,2.5
2019-01-28T07:58:03.222Z,6.1
2019-01-28T07:59:03.675Z,3.6
2019-01-28T08:00:03.593Z,3.6
2019-01-28T08:01:03.585Z,3.6
2019-01-28T08:02:03.473Z,5
2019-01-28T08:03:03.518Z,3.6
2019-01-28T08:04:03.506Z,7.2
2019-01-28T08:05:03.427Z,7.2
2019-01-28T08:06:03.482Z,6.1
2019-01-28T08:07:03.834Z,3.6
2019-01-28T08:08:02.789Z,3.6
2019-01-28T08:09:03.627Z,7.2
2019-01-28T08:10:03.941Z,5
2019-01-28T08:11:02.796Z,7.2
2019-01-28T08:12:01.893Z,6.1
2019-01-28T08:13:02.793Z,6.1
2019-01-28T08:14:02.957Z,5
2019-01-28T08:15:03.054Z,5
2019-01-28T08:16:03.329Z,6.1
2019-01-28T08:17:03.005Z,8.6
2019-01-28T08:18:11.366Z,5
2019-01-28T08:19:03.106Z,8.6
2019-01-28T08:20:03.073Z,8.6
2019-01-28T08:21:03.589Z,8.6
2019-01-28T08:22:02.615Z,9.7
2019-01-28T08:23:03.521Z,9.7
2019-01-28T08:24:03.834Z,8.6
2019-01-28T08:25:03.311Z,8.6
2019-01-28T08:26:03.311Z,8.6
2019-01-28T08:27:03.122Z,12.2
2019-01-28T08:28:03.059Z,8.6
2019-01-28T08:29:03.684Z,9.7
2019-01-28T08:30:03.170Z,9.7
2019-01-28T08:31:02.715Z,9.7
2019-01-28T08:32:03.245Z,11.2
2019-01-28T08:33:03.372Z,12.2
2019-01-28T08:34:03.310Z,11.2
2019-01-28T08:35:03.148Z,11.2
2019-01-28T08:36:02.838Z,11.2
2019-01-28T08:37:03.330Z,9.7
2019-01-28T08:38:03.413Z,8.6
2019-01-28T08:39:02.964Z,12.2
2019-01-28T08:40:03.256Z,9.7
2019-01-28T08:41:03.091Z,9.7
2019-01-28T08:42:03.168Z,11.2
2019-01-28T08:43:03.169Z,12.2
2019-01-28T08:44:03.630Z,9.7
2019-01-28T08:45:02.910Z,11.2
2019-01-28T08:46:03.089Z,8.6
2019-01-28T08:47:03.217Z,11.2
2019-01-28T08:48:03.064Z,8.6
2019-01-28T08:49:03.189Z,15.8
2019-01-28T08:50:03.142Z,11.2
2019-01-28T08:51:02.966Z,6.1
2019-01-28T08:52:02.965Z,7.2
2019-01-28T08:53:03.146Z,9.7
2019-01-28T08:54:03.139Z,14.8
2019-01-28T08:55:03.449Z,12.2
2019-01-28T08:56:03.444Z,8.6
2019-01-28T08:57:03.519Z,8.6
2019-01-28T08:58:03.329Z,11.2
2019-01-28T08:59:02.867Z,13.3
2019-01-28T09:00:03.127Z,8.6
2019-01-28T09:01:03.162Z,9.7
2019-01-28T09:02:04.298Z,9.7
2019-01-28T09:03:03.284Z,9.7
2019-01-28T09:04:03.329Z,9.7
2019-01-28T09:05:02.744Z,9.7
2019-01-28T09:06:03.696Z,9.7
2019-01-28T09:07:03.073Z,9.7
2019-01-28T09:08:03.363Z,9.7
2019-01-28T09:09:03.505Z,12.2
2019-01-28T09:10:03.482Z,11.2
2019-01-28T09:11:03.428Z,8.6
2019-01-28T09:12:02.939Z,13.3
2019-01-28T09:13:03.552Z,7.2
2019-01-28T09:14:03.150Z,8.6
2019-01-28T09:15:03.864Z,13.3
2019-01-28T09:16:03.702Z,9.7
2019-01-28T09:17:03.280Z,8.6
2019-01-28T09:18:03.578Z,11.2
2019-01-28T09:19:03.291Z,9.7
2019-01-28T09:20:03.015Z,7.2
2019-01-28T09:21:03.193Z,7.2
2019-01-28T09:22:03.210Z,14.8
2019-01-28T09:23:02.821Z,9.7
2019-01-28T09:24:03.144Z,9.7
2019-01-28T09:25:03.219Z,8.6
2019-01-28T09:26:03.228Z,13.3
2019-01-28T09:27:03.166Z,9.7
2019-01-28T09:28:03.535Z,9.7
2019-01-28T09:29:03.486Z,11.2
2019-01-28T09:30:03.376Z,6.1
2019-01-28T09:31:03.657Z,6.1
2019-01-28T09:32:03.223Z,7.2
2019-01-28T09:33:03.626Z,8.6
2019-01-28T09:34:03.027Z,8.6
2019-01-28T09:35:03.327Z,8.6
2019-01-28T09:36:03.122Z,13.3
2019-01-28T09:37:03.458Z,7.2
2019-01-28T09:38:03.461Z,9.7
2019-01-28T09:39:03.425Z,7.2
2019-01-28T09:40:04.320Z,11.2
2019-01-28T09:41:02.548Z,13.3
2019-01-28T09:42:03.566Z,14.8
2019-01-28T09:43:03.777Z,13.3
2019-01-28T09:44:03.007Z,14.8
2019-01-28T09:45:03.307Z,13.3
2019-01-28T09:46:03.230Z,9.7
2019-01-28T09:47:03.806Z,12.2
2019-01-28T09:48:03.185Z,6.1
2019-01-28T09:49:03.723Z,6.1
2019-01-28T09:50:03.286Z,7.2
2019-01-28T09:51:03.080Z,6.1
2019-01-28T09:52:03.537Z,7.2
2019-01-28T09:53:03.772Z,7.2
2019-01-28T09:54:02.876Z,11.2
2019-01-28T09:55:03.535Z,9.7
2019-01-28T09:56:03.354Z,8.6
2019-01-28T09:57:03.510Z,13.3
2019-01-28T09:58:02.816Z,11.2
2019-01-28T09:59:03.417Z,7.2
2019-01-28T10:00:03.511Z,8.6
2019-01-28T10:01:03.188Z,14.8
2019-01-28T10:02:03.622Z,15.8
2019-01-28T10:03:03.384Z,14.8
2019-01-28T10:04:03.493Z,17.3
2019-01-28T10:05:03.476Z,13.3
2019-01-28T10:06:03.041Z,15.8
2019-01-28T10:07:03.871Z,15.8
2019-01-28T10:08:03.845Z,13.3
2019-01-28T10:09:03.828Z,12.2
2019-01-28T10:10:03.647Z,13.3
2019-01-28T10:11:03.145Z,11.2
2019-01-28T10:12:03.276Z,9.7
2019-01-28T10:13:02.827Z,11.2
2019-01-28T10:14:02.995Z,13.3
2019-01-28T10:15:03.746Z,11.2
2019-01-28T10:16:02.879Z,12.2
2019-01-28T10:17:03.103Z,12.2
2019-01-28T10:18:03.005Z,20.9
2019-01-28T10:19:03.332Z,17.3
2019-01-28T10:20:03.547Z,24.5
2019-01-28T10:21:02.799Z,15.8
2019-01-28T10:22:03.094Z,15.8
2019-01-28T10:23:03.435Z,14.8
2019-01-28T10:24:02.906Z,14.8
2019-01-28T10:25:03.695Z,17.3
2019-01-28T10:26:03.515Z,14.8
2019-01-28T10:27:02.759Z,12.2
2019-01-28T10:28:03.662Z,18.4
2019-01-28T10:29:03.728Z,13.3
2019-01-28T10:30:03.866Z,14.8
2019-01-28T10:31:02.637Z,17.3
2019-01-28T10:32:03.165Z,15.8
2019-01-28T10:33:03.215Z,15.8
2019-01-28T10:34:03.516Z,19.4
2019-01-28T10:35:03.992Z,17.3
2019-01-28T10:36:03.056Z,22
2019-01-28T10:37:04.461Z,15.8
2019-01-28T10:38:05.492Z,17.3
2019-01-28T10:39:03.641Z,18.4
2019-01-28T10:40:03.114Z,17.3
2019-01-28T10:41:03.785Z,22
2019-01-28T10:42:03.856Z,15.8
2019-01-28T10:43:02.807Z,15.8
2019-01-28T10:44:10.730Z,13.3
2019-01-28T10:45:03.079Z,19.4
2019-01-28T10:46:02.967Z,19.4
2019-01-28T10:47:03.342Z,18.4
2019-01-28T10:48:03.343Z,25.6
2019-01-28T10:49:02.879Z,25.6
2019-01-28T10:50:03.250Z,20.9
2019-01-28T10:51:02.771Z,17.3
2019-01-28T10:52:03.708Z,17.3
2019-01-28T10:53:03.671Z,17.3
2019-01-28T10:54:03.680Z,20.9
2019-01-28T10:55:02.967Z,20.9
2019-01-28T10:56:03.375Z,15.8
2019-01-28T10:57:03.367Z,13.3
2019-01-28T10:58:03.524Z,20.9
2019-01-28T10:59:03.043Z,20.9
2019-01-28T11:00:03.471Z,18.4
2019-01-28T11:01:03.462Z,12.2
2019-01-28T11:02:03.119Z,12.2
2019-01-28T11:03:02.912Z,12.2
2019-01-28T11:04:03.047Z,12.2
2019-01-28T11:05:03.805Z,12.2
2019-01-28T11:06:03.254Z,12.2
2019-01-28T11:07:03.266Z,12.2
2019-01-28T11:08:03.624Z,12.2
2019-01-28T11:09:03.578Z,17.3
2019-01-28T11:10:03.702Z,17.3
2019-01-28T11:11:04.051Z,9.7
2019-01-28T11:12:03.692Z,13.3
2019-01-28T11:13:05.349Z,14.8
2019-01-28T11:14:03.304Z,12.2
2019-01-28T11:15:03.603Z,11.2
2019-01-28T11:16:03.555Z,14.8
2019-01-28T11:17:02.850Z,13.3
2019-01-28T11:18:02.950Z,8.6
2019-01-28T11:19:04.032Z,11.2
2019-01-28T11:20:04.009Z,15.8
2019-01-28T11:21:03.274Z,12.2
2019-01-28T11:22:04.119Z,15.8
2019-01-28T11:23:03.023Z,19.4
2019-01-28T11:24:04.217Z,17.3
2019-01-28T11:25:03.984Z,18.4
2019-01-28T11:26:03.456Z,14.8
2019-01-28T11:27:03.579Z,12.2
2019-01-28T11:28:03.690Z,14.8
2019-01-28T11:29:03.092Z,14.8
2019-01-28T11:30:02.590Z,13.3
2019-01-28T11:31:03.275Z,14.8
2019-01-28T11:32:03.980Z,14.8
2019-01-28T11:33:03.715Z,14.8
2019-01-28T11:34:03.407Z,17.3
2019-01-28T11:35:03.365Z,13.3
2019-01-28T11:36:06.226Z,13.3
2019-01-28T11:37:04.262Z,22
2019-01-28T11:38:03.418Z,20.9
2019-01-28T11:39:03.729Z,15.8
2019-01-28T11:40:03.779Z,9.7
2019-01-28T11:41:03.825Z,13.3
2019-01-28T11:42:04.074Z,13.3
2019-01-28T11:43:04.069Z,14.8
2019-01-28T11:44:03.430Z,18.4
2019-01-28T11:45:03.357Z,15.8
2019-01-28T11:46:03.739Z,11.2
2019-01-28T11:47:03.297Z,12.2
2019-01-28T11:48:03.066Z,17.3
2019-01-28T11:49:06.682Z,17.3
2019-01-28T11:50:04.201Z,17.3
2019-01-28T11:51:03.197Z,12.2
2019-01-28T11:52:03.066Z,11.2
2019-01-28T11:53:03.913Z,9.7
2019-01-28T11:54:03.675Z,9.7
2019-01-28T11:55:03.515Z,12.2
2019-01-28T11:56:03.152Z,13.3
2019-01-28T11:57:03.556Z,12.2
2019-01-28T11:58:02.839Z,15.8
2019-01-28T11:59:02.560Z,15.8
2019-01-28T12:00:03.538Z,15.8
2019-01-28T12:01:02.953Z,13.3
2019-01-28T12:02:03.121Z,15.8
2019-01-28T12:03:03.193Z,12.2
2019-01-28T12:04:03.076Z,15.8
2019-01-28T12:05:03.927Z,19.4
2019-01-28T12:06:03.543Z,11.2
2019-01-28T12:07:03.255Z,14.8
2019-01-28T12:08:02.883Z,23.4
2019-01-28T12:09:03.624Z,17.3
2019-01-28T12:10:03.870Z,14.8
2019-01-28T12:11:03.052Z,17.3
2019-01-28T12:12:03.125Z,13.3
2019-01-28T12:13:03.604Z,13.3
2019-01-28T12:14:03.193Z,13.3
2019-01-28T12:15:03.104Z,14.8
2019-01-28T12:16:03.684Z,13.3
2019-01-28T12:17:03.530Z,13.3
2019-01-28T12:18:03.114Z,17.3
2019-01-28T12:19:03.466Z,15.8
2019-01-28T12:20:03.821Z,17.3
2019-01-28T12:21:03.224Z,14.8
2019-01-28T12:22:02.999Z,17.3
2019-01-28T12:23:03.140Z,17.3
2019-01-28T12:24:02.996Z,18.4
2019-01-28T12:25:03.543Z,17.3
2019-01-28T12:26:03.787Z,17.3
2019-01-28T12:27:03.777Z,17.3
2019-01-28T12:28:03.035Z,17.3
2019-01-28T12:29:03.929Z,15.8
2019-01-28T12:30:03.265Z,20.9
2019-01-28T12:31:03.709Z,17.3
2019-01-28T12:32:03.128Z,17.3
2019-01-28T12:33:03.548Z,17.3
2019-01-28T12:34:03.170Z,18.4
2019-01-28T12:35:03.170Z,20.9
2019-01-28T12:36:03.171Z,17.3
2019-01-28T12:37:02.901Z,17.3
2019-01-28T12:38:03.135Z,18.4
2019-01-28T12:39:03.590Z,15.8
2019-01-28T12:40:02.883Z,15.8
2019-01-28T12:41:03.561Z,17.3
2019-01-28T12:42:03.197Z,19.4
2019-01-28T12:43:03.440Z,23.4
2019-01-28T12:44:03.469Z,14.8
2019-01-28T12:45:03.527Z,14.8
2019-01-28T12:46:03.864Z,20.9
2019-01-28T12:47:03.480Z,14.8
2019-01-28T12:48:03.408Z,15.8
2019-01-28T12:49:03.752Z,15.8
2019-01-28T12:50:03.082Z,25.6
2019-01-28T12:51:03.082Z,25.6
2019-01-28T12:52:03.237Z,18.4
2019-01-28T12:53:03.857Z,18.4
2019-01-28T12:54:03.099Z,13.3
2019-01-28T12:55:02.882Z,11.2
2019-01-28T12:56:03.329Z,15.8
2019-01-28T12:57:03.181Z,20.9
2019-01-28T12:58:03.600Z,15.8
2019-01-28T12:59:09.549Z,17.3
2019-01-28T13:00:03.482Z,15.8
2019-01-28T13:01:03.481Z,14.8
2019-01-28T13:02:02.853Z,14.8
2019-01-28T13:03:03.323Z,14.8
2019-01-28T13:04:03.472Z,14.8
2019-01-28T13:05:03.243Z,14.8
2019-01-28T13:06:03.260Z,14.8
2019-01-28T13:07:03.031Z,14.8
2019-01-28T13:08:02.993Z,14.8
2019-01-28T13:09:04.017Z,15.8
2019-01-28T13:10:02.865Z,19.4
2019-01-28T13:11:03.028Z,13.3
2019-01-28T13:12:03.358Z,23.4
2019-01-28T13:13:03.372Z,24.5
2019-01-28T13:14:03.284Z,27
2019-01-28T13:15:03.850Z,29.5
2019-01-28T13:16:03.022Z,20.9
2019-01-28T13:17:03.608Z,23.4
2019-01-28T13:18:03.724Z,14.8
2019-01-28T13:19:03.352Z,24.5
2019-01-28T13:20:03.789Z,25.6
2019-01-28T13:21:02.853Z,20.9
2019-01-28T13:22:03.263Z,20.9
2019-01-28T13:23:03.567Z,17.3
2019-01-28T13:24:02.696Z,14.8
2019-01-28T13:25:03.401Z,14.8
2019-01-28T13:26:02.964Z,13.3
2019-01-28T13:27:03.081Z,23.4
2019-01-28T13:28:02.980Z,15.8
2019-01-28T13:29:02.930Z,22
2019-01-28T13:30:03.322Z,19.4
2019-01-28T13:31:03.275Z,25.6
2019-01-28T13:32:03.087Z,24.5